createdAt,value
2019-01-13T00:00:38.824Z,96.94
2019-01-13T00:03:11.120Z,96.94
2019-01-13T00:05:43.446Z,96.96
2019-01-13T00:08:15.806Z,96.94
2019-01-13T00:10:48.198Z,96.98
2019-01-13T00:13:20.502Z,96.96
2019-01-13T00:15:52.837Z,96.99
2019-01-13T00:18:25.538Z,97.00
2019-01-13T00:20:57.288Z,97.00
2019-01-13T00:23:29.584Z,97.00
2019-01-13T00:26:02.241Z,96.99
2019-01-13T00:28:34.000Z,97.02
2019-01-13T00:31:06.385Z,97.02
2019-01-13T00:33:38.691Z,97.00
2019-01-13T00:36:11.390Z,97.00
2019-01-13T00:38:43.402Z,97.01
2019-01-13T00:41:15.758Z,97.04
2019-01-13T00:43:48.360Z,97.04
2019-01-13T00:46:20.201Z,97.04
2019-01-13T00:48:52.495Z,97.03
2019-01-13T00:51:25.153Z,97.05
2019-01-13T00:53:56.990Z,97.06
2019-01-13T00:56:29.314Z,97.05
2019-01-13T00:59:01.718Z,97.08
2019-01-13T01:01:34.056Z,97.09
2019-01-13T01:04:06.396Z,97.07
2019-01-13T01:06:39.070Z,97.07
2019-01-13T01:09:11.930Z,97.05
2019-01-13T01:11:44.318Z,97.08
2019-01-13T01:14:16.267Z,97.08
2019-01-13T01:16:48.689Z,97.11
2019-01-13T01:19:21.078Z,97.12
2019-01-13T01:21:53.412Z,97.12
2019-01-13T01:24:25.706Z,97.16
2019-01-13T01:26:58.328Z,97.16
2019-01-13T01:29:30.800Z,97.21
2019-01-13T01:32:03.477Z,97.22
2019-01-13T01:34:35.541Z,97.24
2019-01-13T01:37:07.977Z,97.25
2019-01-13T01:39:40.286Z,97.26
2019-01-13T01:42:12.681Z,97.27
2019-01-13T01:44:45.123Z,97.29
2019-01-13T01:47:17.437Z,97.31
2019-01-13T01:49:49.756Z,97.40
2019-01-13T01:52:22.166Z,97.37
2019-01-13T01:54:54.494Z,97.38
2019-01-13T01:57:27.248Z,96.99
2019-01-13T01:59:59.375Z,97.05
2019-01-13T02:02:31.711Z,96.99
2019-01-13T02:05:04.121Z,97.05
2019-01-13T02:07:36.553Z,97.03
2019-01-13T02:10:12.910Z,97.03
2019-01-13T02:12:45.203Z,97.00
2019-01-13T02:15:26.505Z,97.03
2019-01-13T02:17:58.809Z,97.21
2019-01-13T02:20:31.138Z,96.92
2019-01-13T02:23:03.447Z,96.64
2019-01-13T02:25:36.897Z,96.46
2019-01-13T02:28:08.666Z,96.40
2019-01-13T02:30:48.806Z,96.33
2019-01-13T02:33:15.095Z,96.33
2019-01-13T02:35:47.491Z,96.31
2019-01-13T02:38:19.819Z,96.23
2019-01-13T02:40:52.151Z,96.11
2019-01-13T02:43:24.552Z,95.39
2019-01-13T02:45:56.891Z,95.17
2019-01-13T02:48:29.216Z,95.10
2019-01-13T02:51:01.539Z,95.04
2019-01-13T02:53:33.856Z,95.02
2019-01-13T02:56:06.187Z,94.99
2019-01-13T02:58:38.610Z,95.01
2019-01-13T03:01:11.037Z,94.98
2019-01-13T03:03:43.455Z,94.98
2019-01-13T03:06:15.838Z,94.97
2019-01-13T03:08:48.144Z,95.00
2019-01-13T03:11:20.479Z,94.99
2019-01-13T03:13:53.086Z,95.00
2019-01-13T03:16:25.445Z,95.02
2019-01-13T03:18:57.724Z,94.98
2019-01-13T03:21:30.109Z,95.00
2019-01-13T03:24:02.419Z,94.94
2019-01-13T03:26:34.954Z,94.98
2019-01-13T03:29:07.278Z,95.03
2019-01-13T03:31:39.577Z,95.02
2019-01-13T03:34:11.886Z,95.04
2019-01-13T03:36:44.210Z,95.01
2019-01-13T03:39:16.530Z,95.01
2019-01-13T03:41:49.201Z,94.94
2019-01-13T03:44:21.337Z,94.96
2019-01-13T03:46:53.198Z,94.98
2019-01-13T03:49:25.529Z,94.99
2019-01-13T03:51:57.858Z,94.98
2019-01-13T03:54:30.153Z,94.95
2019-01-13T03:57:02.471Z,94.94
2019-01-13T03:59:35.087Z,94.92
2019-01-13T04:02:06.850Z,94.92
2019-01-13T04:04:39.175Z,94.89
2019-01-13T04:07:11.501Z,94.85
2019-01-13T04:09:44.156Z,94.84
2019-01-13T04:12:16.217Z,94.81
2019-01-13T04:14:48.905Z,94.84
2019-01-13T04:17:20.658Z,94.80
2019-01-13T04:19:53.316Z,94.75
2019-01-13T04:22:25.213Z,94.74
2019-01-13T04:24:57.539Z,94.70
2019-01-13T04:27:29.855Z,94.70
2019-01-13T04:30:02.182Z,94.69
2019-01-13T04:32:34.584Z,94.67
2019-01-13T04:35:07.921Z,94.65
2019-01-13T04:37:40.008Z,94.66
2019-01-13T04:40:12.348Z,94.64
2019-01-13T04:42:44.684Z,94.62
2019-01-13T04:45:17.172Z,94.63
2019-01-13T04:47:50.338Z,94.58
2019-01-13T04:50:22.360Z,94.54
2019-01-13T04:52:54.967Z,94.53
2019-01-13T04:55:27.694Z,94.51
2019-01-13T04:57:59.449Z,94.45
2019-01-13T05:00:32.141Z,94.49
2019-01-13T05:03:03.991Z,94.49
2019-01-13T05:05:36.364Z,94.49
2019-01-13T05:08:09.007Z,94.47
2019-01-13T05:10:40.761Z,94.49
2019-01-13T05:13:13.084Z,94.42
2019-01-13T05:15:45.405Z,94.49
2019-01-13T05:18:17.732Z,94.50
2019-01-13T05:20:50.055Z,94.46
2019-01-13T05:23:22.387Z,94.47
2019-01-13T05:25:55.080Z,94.51
2019-01-13T05:28:26.939Z,94.49
2019-01-13T05:30:59.305Z,94.49
2019-01-13T05:33:31.642Z,94.53
2019-01-13T05:36:04.042Z,94.51
2019-01-13T05:38:36.419Z,94.50
2019-01-13T05:41:08.752Z,94.50
2019-01-13T05:43:41.069Z,94.53
2019-01-13T05:46:13.402Z,94.55
2019-01-13T05:48:45.731Z,94.55
2019-01-13T05:51:18.184Z,94.54
2019-01-13T05:53:50.573Z,94.56
2019-01-13T05:56:22.900Z,94.55
2019-01-13T05:58:55.339Z,94.56
2019-01-13T06:01:27.706Z,94.56
2019-01-13T06:04:00.276Z,94.59
2019-01-13T06:06:32.917Z,94.58
2019-01-13T06:09:06.472Z,94.55
2019-01-13T06:11:38.830Z,94.56
2019-01-13T06:14:11.434Z,94.53
2019-01-13T06:16:43.851Z,94.52
2019-01-13T06:19:16.177Z,94.51
2019-01-13T06:21:49.223Z,94.49
2019-01-13T06:24:21.357Z,94.46
2019-01-13T06:26:53.740Z,94.42
2019-01-13T06:29:26.189Z,94.46
2019-01-13T06:31:58.919Z,94.40
2019-01-13T06:34:30.742Z,94.40
2019-01-13T06:37:03.086Z,94.35
2019-01-13T06:39:35.492Z,94.34
2019-01-13T06:42:07.893Z,94.37
2019-01-13T06:44:40.558Z,94.37
2019-01-13T06:47:12.344Z,94.36
2019-01-13T06:49:46.029Z,94.30
2019-01-13T06:52:16.814Z,94.32
2019-01-13T06:54:48.813Z,94.31
2019-01-13T06:57:20.670Z,94.30
2019-01-13T06:59:53.367Z,94.23
2019-01-13T07:02:25.526Z,94.22
2019-01-13T07:04:57.279Z,94.26
2019-01-13T07:07:29.746Z,94.28
2019-01-13T07:10:02.320Z,94.21
2019-01-13T07:12:34.635Z,94.21
2019-01-13T07:15:09.936Z,94.24
2019-01-13T07:17:42.297Z,94.28
2019-01-13T07:20:17.402Z,94.25
2019-01-13T07:22:50.133Z,94.25
2019-01-13T07:25:21.942Z,94.24
2019-01-13T07:27:54.349Z,94.17
2019-01-13T07:30:27.132Z,94.19
2019-01-13T07:32:59.296Z,94.15
2019-01-13T07:35:31.634Z,94.08
2019-01-13T07:38:03.993Z,94.11
2019-01-13T07:40:36.390Z,94.09
2019-01-13T07:43:08.741Z,94.09
2019-01-13T07:45:41.377Z,94.12
2019-01-13T07:48:13.158Z,94.10
2019-01-13T07:50:45.936Z,94.08
2019-01-13T07:53:18.478Z,94.08
2019-01-13T07:55:50.551Z,94.04
2019-01-13T07:58:23.345Z,94.04
2019-01-13T08:00:55.552Z,93.97
2019-01-13T08:03:28.196Z,94.00
2019-01-13T08:06:00.874Z,93.97
2019-01-13T08:08:33.025Z,93.98
2019-01-13T08:11:05.219Z,93.95
2019-01-13T08:13:37.040Z,94.00
2019-01-13T08:16:09.364Z,93.99
2019-01-13T08:18:42.108Z,93.95
2019-01-13T08:21:13.873Z,93.99
2019-01-13T08:23:46.220Z,93.99
2019-01-13T08:26:18.938Z,93.97
2019-01-13T08:28:51.394Z,93.97
2019-01-13T08:31:23.513Z,93.94
2019-01-13T08:33:55.884Z,93.98
2019-01-13T08:36:28.362Z,93.98
2019-01-13T08:39:00.758Z,93.97
2019-01-13T08:41:33.232Z,93.95
2019-01-13T08:44:05.581Z,93.92
2019-01-13T08:46:37.970Z,93.92
2019-01-13T08:49:10.354Z,93.94
2019-01-13T08:51:42.727Z,93.93
2019-01-13T08:54:15.422Z,93.91
2019-01-13T08:56:47.234Z,93.92
2019-01-13T08:59:19.613Z,93.88
2019-01-13T09:01:52.204Z,93.86
2019-01-13T09:04:25.219Z,93.88
2019-01-13T09:06:57.256Z,93.85
2019-01-13T09:09:30.193Z,93.85
2019-01-13T09:12:02.449Z,93.85
2019-01-13T09:14:34.786Z,93.85
2019-01-13T09:17:07.188Z,93.86
2019-01-13T09:19:39.817Z,93.88
2019-01-13T09:22:12.632Z,93.88
2019-01-13T09:24:44.798Z,93.89
2019-01-13T09:27:17.178Z,93.92
2019-01-13T09:29:49.678Z,93.90
2019-01-13T09:32:22.100Z,93.92
2019-01-13T09:34:54.425Z,93.93
2019-01-13T09:37:27.098Z,93.92
2019-01-13T09:39:58.950Z,93.91
2019-01-13T09:42:31.299Z,93.90
2019-01-13T09:45:03.725Z,93.87
2019-01-13T09:47:36.105Z,93.87
2019-01-13T09:50:11.193Z,93.84
2019-01-13T09:52:43.522Z,93.85
2019-01-13T09:55:17.630Z,93.85
2019-01-13T09:57:50.115Z,93.84
2019-01-13T10:00:37.925Z,93.82
2019-01-13T10:03:11.541Z,93.79
2019-01-13T10:05:42.360Z,93.78
2019-01-13T10:08:14.066Z,93.76
2019-01-13T10:10:46.391Z,93.78
2019-01-13T10:13:18.715Z,93.77
2019-01-13T10:15:51.350Z,93.76
2019-01-13T10:18:23.199Z,93.78
2019-01-13T10:20:56.177Z,93.79
2019-01-13T10:23:28.508Z,93.78
2019-01-13T10:26:00.407Z,93.80
2019-01-13T10:28:36.311Z,93.80
2019-01-13T10:31:09.624Z,93.81
2019-01-13T10:33:41.636Z,93.80
2019-01-13T10:36:14.348Z,93.79
2019-01-13T10:38:46.696Z,93.81
2019-01-13T10:41:19.256Z,93.82
2019-01-13T10:43:53.598Z,93.83
2019-01-13T10:46:26.997Z,93.84
2019-01-13T10:48:59.265Z,93.87
2019-01-13T10:51:32.563Z,93.86
2019-01-13T10:54:09.265Z,93.89
2019-01-13T10:56:40.925Z,93.92
2019-01-13T10:59:17.658Z,93.91
2019-01-13T11:01:51.203Z,93.91
2019-01-13T11:04:22.073Z,93.90
2019-01-13T11:06:53.738Z,93.91
2019-01-13T11:09:26.437Z,93.94
2019-01-13T11:11:58.549Z,93.95
2019-01-13T11:14:32.683Z,93.98
2019-01-13T11:17:05.421Z,93.96
2019-01-13T11:19:37.462Z,93.99
2019-01-13T11:22:09.849Z,93.97
2019-01-13T11:24:42.160Z,93.96
2019-01-13T11:27:14.506Z,93.97
2019-01-13T11:29:47.229Z,93.99
2019-01-13T11:32:19.243Z,94.02
2019-01-13T11:34:51.571Z,94.02
2019-01-13T11:37:23.893Z,94.02
2019-01-13T11:39:56.282Z,94.00
2019-01-13T11:42:28.566Z,94.04
2019-01-13T11:45:01.098Z,94.07
2019-01-13T11:47:33.456Z,94.06
2019-01-13T11:50:07.671Z,94.07
2019-01-13T11:52:40.053Z,94.05
2019-01-13T11:55:14.127Z,94.06
2019-01-13T11:57:46.941Z,94.03
2019-01-13T12:00:29.222Z,94.04
2019-01-13T12:03:06.645Z,94.02
2019-01-13T12:05:35.989Z,94.03
2019-01-13T12:08:08.829Z,94.01
2019-01-13T12:10:41.086Z,94.01
2019-01-13T12:13:13.428Z,94.02
2019-01-13T12:15:45.748Z,94.05
2019-01-13T12:18:18.049Z,94.07
2019-01-13T12:20:50.722Z,94.09
2019-01-13T12:23:22.457Z,94.11
2019-01-13T12:25:54.818Z,94.11
2019-01-13T12:28:27.094Z,94.11
2019-01-13T12:30:59.435Z,94.14
2019-01-13T12:33:31.788Z,94.15
2019-01-13T12:36:04.187Z,94.15
2019-01-13T12:38:38.467Z,94.25
2019-01-13T12:41:10.923Z,94.23
2019-01-13T12:43:43.296Z,94.26
2019-01-13T12:46:15.692Z,94.26
2019-01-13T12:48:48.430Z,94.25
2019-01-13T12:51:20.476Z,94.29
2019-01-13T12:53:53.175Z,94.29
2019-01-13T12:56:25.339Z,94.34
2019-01-13T12:58:57.648Z,94.30
2019-01-13T13:01:30.252Z,94.29
2019-01-13T13:04:02.157Z,94.26
2019-01-13T13:06:34.774Z,94.25
2019-01-13T13:09:09.854Z,94.25
2019-01-13T13:11:42.193Z,94.21
2019-01-13T13:14:14.751Z,94.17
2019-01-13T13:16:46.526Z,94.18
2019-01-13T13:19:18.844Z,94.17
2019-01-13T13:21:51.173Z,94.07
2019-01-13T13:24:23.488Z,94.02
2019-01-13T13:26:55.830Z,93.97
2019-01-13T13:29:28.227Z,93.97
2019-01-13T13:32:00.707Z,93.94
2019-01-13T13:34:33.073Z,93.94
2019-01-13T13:37:05.386Z,93.96
2019-01-13T13:39:37.687Z,93.93
2019-01-13T13:42:10.016Z,93.91
2019-01-13T13:44:42.331Z,93.90
2019-01-13T13:47:14.810Z,93.86
2019-01-13T13:49:47.305Z,93.83
2019-01-13T13:52:19.798Z,93.84
2019-01-13T13:54:52.629Z,93.79
2019-01-13T13:57:25.260Z,93.61
2019-01-13T13:59:57.835Z,93.59
2019-01-13T14:02:30.115Z,93.55
2019-01-13T14:05:02.539Z,93.49
2019-01-13T14:07:35.174Z,93.43
2019-01-13T14:10:12.443Z,93.36
2019-01-13T14:12:44.897Z,93.31
2019-01-13T14:15:17.187Z,93.22
2019-01-13T14:17:49.586Z,93.20
2019-01-13T14:20:21.911Z,93.18
2019-01-13T14:22:54.633Z,93.18
2019-01-13T14:25:26.400Z,93.18
2019-01-13T14:27:59.461Z,93.11
2019-01-13T14:30:31.852Z,92.98
2019-01-13T14:33:03.644Z,92.91
2019-01-13T14:35:36.376Z,92.80
2019-01-13T14:38:08.616Z,92.66
2019-01-13T14:40:40.965Z,92.66
2019-01-13T14:43:13.598Z,92.56
2019-01-13T14:45:45.351Z,92.53
2019-01-13T14:48:17.688Z,92.51
2019-01-13T14:50:50.271Z,92.47
2019-01-13T14:53:22.046Z,92.45
2019-01-13T14:55:54.376Z,92.43
2019-01-13T14:58:26.694Z,92.39
2019-01-13T15:00:59.058Z,92.37
2019-01-13T15:03:31.387Z,92.32
2019-01-13T15:06:03.696Z,92.18
2019-01-13T15:08:36.027Z,92.23
2019-01-13T15:11:08.400Z,92.21
2019-01-13T15:13:40.765Z,92.14
2019-01-13T15:16:13.126Z,92.08
2019-01-13T15:18:45.466Z,92.06
2019-01-13T15:21:17.948Z,91.96
2019-01-13T15:23:50.286Z,91.90
2019-01-13T15:26:22.707Z,91.88
2019-01-13T15:28:55.396Z,91.80
2019-01-13T15:31:27.422Z,91.79
2019-01-13T15:33:59.787Z,91.76
2019-01-13T15:36:32.628Z,91.71
2019-01-13T15:39:08.242Z,91.69
2019-01-13T15:41:40.577Z,91.58
2019-01-13T15:44:13.189Z,91.19
2019-01-13T15:46:44.943Z,91.15
2019-01-13T15:49:17.239Z,91.10
2019-01-13T15:51:49.577Z,91.07
2019-01-13T15:54:22.266Z,91.04
2019-01-13T15:56:54.630Z,91.06
2019-01-13T15:59:26.399Z,91.01
2019-01-13T16:01:58.732Z,91.00
2019-01-13T16:04:31.292Z,90.92
2019-01-13T16:07:03.406Z,90.94
2019-01-13T16:09:35.240Z,90.92
2019-01-13T16:12:07.626Z,90.97
2019-01-13T16:14:44.140Z,91.01
2019-01-13T16:17:31.629Z,91.03
2019-01-13T16:20:47.404Z,91.01
2019-01-13T16:23:30.015Z,91.04
2019-01-13T16:26:22.575Z,91.08
2019-01-13T16:29:02.129Z,91.14
2019-01-13T16:31:46.130Z,91.17
2019-01-13T16:34:35.343Z,91.21
2019-01-13T16:37:20.007Z,91.25
2019-01-13T16:40:09.471Z,91.28
2019-01-13T16:42:52.530Z,91.32
2019-01-13T16:45:41.965Z,91.35
2019-01-13T16:48:23.115Z,91.40
2019-01-13T16:51:24.909Z,91.48
2019-01-13T16:54:20.122Z,91.49
2019-01-13T16:57:10.036Z,91.50
2019-01-13T17:00:00.395Z,91.53
2019-01-13T17:02:37.925Z,91.53
2019-01-13T17:05:11.630Z,91.51
2019-01-13T17:07:44.256Z,91.53
2019-01-13T17:10:18.759Z,91.52
2019-01-13T17:12:51.447Z,91.46
2019-01-13T17:15:34.168Z,91.44
2019-01-13T17:18:09.700Z,91.41
2019-01-13T17:20:42.017Z,91.41
2019-01-13T17:23:14.648Z,91.38
2019-01-13T17:25:46.958Z,91.37
2019-01-13T17:28:19.089Z,91.29
2019-01-13T17:30:51.491Z,91.27
2019-01-13T17:33:23.815Z,91.23
2019-01-13T17:35:56.172Z,91.23
2019-01-13T17:38:28.514Z,91.17
2019-01-13T17:41:00.847Z,91.11
2019-01-13T17:43:33.278Z,91.05
2019-01-13T17:46:05.873Z,91.04
2019-01-13T17:48:37.791Z,91.03
2019-01-13T17:51:10.536Z,90.96
2019-01-13T17:53:42.591Z,90.95
2019-01-13T17:56:15.025Z,90.91
2019-01-13T17:58:47.853Z,90.90
2019-01-13T18:01:35.140Z,90.86
2019-01-13T18:04:07.575Z,90.83
2019-01-13T18:06:40.239Z,90.80
2019-01-13T18:09:12.425Z,90.76
2019-01-13T18:11:44.648Z,90.73
2019-01-13T18:14:17.286Z,90.70
2019-01-13T18:16:49.504Z,90.72
2019-01-13T18:19:21.923Z,90.68
2019-01-13T18:21:54.219Z,90.67
2019-01-13T18:24:26.564Z,90.60
2019-01-13T18:26:59.205Z,90.64
2019-01-13T18:29:30.976Z,90.58
2019-01-13T18:32:03.270Z,90.57
2019-01-13T18:34:35.582Z,90.55
2019-01-13T18:37:07.959Z,90.51
2019-01-13T18:39:40.366Z,90.45
2019-01-13T18:42:13.105Z,90.42
2019-01-13T18:44:45.133Z,90.40
2019-01-13T18:47:17.449Z,90.40
2019-01-13T18:49:50.132Z,90.40
2019-01-13T18:52:22.191Z,90.35
2019-01-13T18:54:54.757Z,90.31
2019-01-13T18:57:27.232Z,90.31
2019-01-13T18:59:59.298Z,90.32
2019-01-13T19:02:31.888Z,90.36
2019-01-13T19:05:03.767Z,90.35
2019-01-13T19:07:36.091Z,90.37
2019-01-13T19:10:21.712Z,90.35
2019-01-13T19:13:02.959Z,90.35
2019-01-13T19:15:35.326Z,90.27
2019-01-13T19:18:07.694Z,90.27
2019-01-13T19:20:40.215Z,90.28
2019-01-13T19:23:17.075Z,90.25
2019-01-13T19:25:49.392Z,90.29
2019-01-13T19:28:21.712Z,90.23
2019-01-13T19:30:54.433Z,90.24
2019-01-13T19:33:26.516Z,90.21
2019-01-13T19:35:58.826Z,90.21
2019-01-13T19:38:31.165Z,90.17
2019-01-13T19:41:03.785Z,90.20
2019-01-13T19:43:35.691Z,90.22
2019-01-13T19:46:08.137Z,90.23
2019-01-13T19:48:40.715Z,90.31
2019-01-13T19:51:12.646Z,90.35
2019-01-13T19:53:44.968Z,90.40
2019-01-13T19:56:17.396Z,90.44
2019-01-13T19:58:50.180Z,90.46
2019-01-13T20:01:22.935Z,90.55
2019-01-13T20:03:55.013Z,90.66
2019-01-13T20:06:27.503Z,90.79
2019-01-13T20:09:00.180Z,90.97
2019-01-13T20:11:32.443Z,91.13
2019-01-13T20:14:04.643Z,91.31
2019-01-13T20:16:37.008Z,91.45
2019-01-13T20:19:09.662Z,91.54
2019-01-13T20:21:41.440Z,91.63
2019-01-13T20:24:16.131Z,91.74
2019-01-13T20:26:48.436Z,91.87
2019-01-13T20:29:21.181Z,91.96
2019-01-13T20:31:53.273Z,92.04
2019-01-13T20:34:25.578Z,92.16
2019-01-13T20:36:57.924Z,92.26
2019-01-13T20:39:30.568Z,92.33
2019-01-13T20:42:02.674Z,92.45
2019-01-13T20:44:34.813Z,92.51
2019-01-13T20:47:06.988Z,92.51
2019-01-13T20:49:38.776Z,92.55
2019-01-13T20:52:11.414Z,92.53
2019-01-13T20:54:43.310Z,92.63
2019-01-13T20:57:15.664Z,92.71
2019-01-13T20:59:48.421Z,92.76
2019-01-13T21:02:20.538Z,92.70
2019-01-13T21:04:52.827Z,92.82
2019-01-13T21:07:25.581Z,92.84
2019-01-13T21:09:58.102Z,92.91
2019-01-13T21:12:30.200Z,92.92
2019-01-13T21:15:02.945Z,92.93
2019-01-13T21:17:34.958Z,92.96
2019-01-13T21:20:07.914Z,92.95
2019-01-13T21:22:40.079Z,92.96
2019-01-13T21:25:14.210Z,92.95
2019-01-13T21:27:47.069Z,93.01
2019-01-13T21:30:22.790Z,93.02
2019-01-13T21:32:55.123Z,93.02
2019-01-13T21:35:33.861Z,93.03
2019-01-13T21:38:01.589Z,93.08
2019-01-13T21:40:34.192Z,93.09
2019-01-13T21:43:05.981Z,93.17
2019-01-13T21:45:38.273Z,93.21
2019-01-13T21:48:10.593Z,93.26
2019-01-13T21:50:42.898Z,93.30
2019-01-13T21:53:15.206Z,93.36
2019-01-13T21:55:47.684Z,93.31
2019-01-13T21:58:20.015Z,93.32
2019-01-13T22:00:52.341Z,93.30
2019-01-13T22:03:24.655Z,93.40
2019-01-13T22:05:57.155Z,93.61
2019-01-13T22:08:29.472Z,93.99
2019-01-13T22:11:01.778Z,94.11
2019-01-13T22:13:34.082Z,94.25
2019-01-13T22:16:06.372Z,94.24
2019-01-13T22:18:38.706Z,94.17
2019-01-13T22:21:11.282Z,94.12
2019-01-13T22:23:43.042Z,94.06
2019-01-13T22:26:15.436Z,93.96
2019-01-13T22:28:47.839Z,93.87
2019-01-13T22:31:22.413Z,93.76
2019-01-13T22:33:54.563Z,93.58
2019-01-13T22:36:27.006Z,93.47
2019-01-13T22:38:59.622Z,93.34
2019-01-13T22:41:31.515Z,93.23
2019-01-13T22:44:04.233Z,93.13
2019-01-13T22:46:36.348Z,93.02
2019-01-13T22:49:08.939Z,92.92
2019-01-13T22:51:40.724Z,92.86
2019-01-13T22:54:13.210Z,92.76
2019-01-13T22:56:45.493Z,92.70
2019-01-13T22:59:17.800Z,92.65
2019-01-13T23:01:50.214Z,92.58
2019-01-13T23:04:22.519Z,92.53
2019-01-13T23:06:54.810Z,92.51
2019-01-13T23:09:27.144Z,92.46
2019-01-13T23:11:59.538Z,92.43
2019-01-13T23:14:31.885Z,92.40
2019-01-13T23:17:04.168Z,92.37
2019-01-13T23:19:36.460Z,92.35
2019-01-13T23:22:08.747Z,92.31
2019-01-13T23:24:41.068Z,92.28
2019-01-13T23:27:13.451Z,92.26
2019-01-13T23:29:45.765Z,92.23
2019-01-13T23:32:18.191Z,92.23
2019-01-13T23:34:50.775Z,92.21
2019-01-13T23:37:22.805Z,92.20
2019-01-13T23:39:55.117Z,92.20
2019-01-13T23:42:27.767Z,92.17
2019-01-13T23:44:59.666Z,92.16
2019-01-13T23:47:31.964Z,92.17
2019-01-13T23:50:04.321Z,92.13
2019-01-13T23:52:36.620Z,92.09
2019-01-13T23:55:09.240Z,92.05
2019-01-13T23:57:41.092Z,92.02
